createdAt,value
2023-03-19T00:00:52.990Z,43.38
2023-03-19T00:01:53.067Z,56.37
2023-03-19T00:02:53.280Z,57.94
2023-03-19T00:03:53.112Z,51.70
2023-03-19T00:04:54.176Z,61.39
2023-03-19T00:05:52.987Z,44.12
2023-03-19T00:06:52.966Z,47.18
2023-03-19T00:07:52.956Z,53.81
2023-03-19T00:08:52.928Z,46.47
2023-03-19T00:09:52.904Z,45.41
2023-03-19T00:10:52.923Z,43.25
2023-03-19T00:11:52.963Z,51.11
2023-03-19T00:12:52.944Z,50.63
2023-03-19T00:13:53.676Z,49.74
2023-03-19T00:14:52.890Z,48.84
2023-03-19T00:15:52.919Z,54.63
2023-03-19T00:16:52.959Z,50.02
2023-03-19T00:17:52.894Z,48.37
2023-03-19T00:18:52.853Z,48.59
2023-03-19T00:19:52.861Z,48.38
2023-03-19T00:20:52.973Z,56.08
2023-03-19T00:21:52.835Z,53.41
2023-03-19T00:22:52.839Z,50.75
2023-03-19T00:23:52.840Z,50.14
2023-03-19T00:24:52.817Z,46.49
2023-03-19T00:25:52.781Z,44.05
2023-03-19T00:26:52.825Z,48.51
2023-03-19T00:27:52.852Z,44.31
2023-03-19T00:28:52.859Z,50.32
2023-03-19T00:29:52.776Z,55.08
2023-03-19T00:30:52.813Z,46.83
2023-03-19T00:31:52.796Z,50.12
2023-03-19T00:32:52.810Z,48.69
2023-03-19T00:33:52.730Z,53.28
2023-03-19T00:34:52.757Z,48.96
2023-03-19T00:35:52.733Z,47.88
2023-03-19T00:36:52.765Z,42.49
2023-03-19T00:37:52.752Z,45.74
2023-03-19T00:38:52.742Z,46.97
2023-03-19T00:39:52.671Z,47.69
2023-03-19T00:40:52.704Z,45.93
2023-03-19T00:41:52.718Z,55.52
2023-03-19T00:42:52.667Z,49.67
2023-03-19T00:43:52.673Z,49.63
2023-03-19T00:44:53.694Z,42.11
2023-03-19T00:45:52.714Z,48.39
2023-03-19T00:46:52.675Z,42.50
2023-03-19T00:47:52.643Z,49.19
2023-03-19T00:48:52.598Z,50.27
2023-03-19T00:49:52.612Z,49.25
2023-03-19T00:50:52.621Z,49.05
2023-03-19T00:51:52.607Z,53.56
2023-03-19T00:52:52.644Z,50.34
2023-03-19T00:53:52.583Z,59.55
2023-03-19T00:54:52.581Z,51.71
2023-03-19T00:55:52.644Z,49.09
2023-03-19T00:56:52.551Z,50.53
2023-03-19T00:57:52.549Z,55.65
2023-03-19T00:58:52.575Z,48.24
2023-03-19T00:59:52.519Z,46.44
2023-03-19T01:00:52.509Z,49.27
2023-03-19T01:01:52.490Z,45.02
2023-03-19T01:02:52.765Z,51.46
2023-03-19T01:03:52.501Z,48.14
2023-03-19T01:04:52.538Z,42.15
2023-03-19T01:05:52.487Z,48.57
2023-03-19T01:06:52.492Z,42.10
2023-03-19T01:07:52.450Z,42.51
2023-03-19T01:08:52.500Z,50.30
2023-03-19T01:09:52.494Z,59.39
2023-03-19T01:10:52.554Z,53.37
2023-03-19T01:11:52.457Z,53.97
2023-03-19T01:12:52.428Z,45.23
2023-03-19T01:13:52.420Z,61.19
2023-03-19T01:14:52.418Z,45.24
2023-03-19T01:15:52.435Z,42.21
2023-03-19T01:16:52.399Z,49.11
2023-03-19T01:17:52.386Z,42.42
2023-03-19T01:18:52.364Z,42.08
2023-03-19T01:19:52.375Z,46.88
2023-03-19T01:20:52.379Z,51.00
2023-03-19T01:21:52.374Z,51.96
2023-03-19T01:22:52.356Z,45.60
2023-03-19T01:23:52.390Z,49.22
2023-03-19T01:24:52.868Z,48.92
2023-03-19T01:25:52.304Z,42.24
2023-03-19T01:26:53.350Z,48.65
2023-03-19T01:27:52.307Z,51.59
2023-03-19T01:28:52.295Z,48.14
2023-03-19T01:29:52.280Z,53.27
2023-03-19T01:30:52.300Z,49.23
2023-03-19T01:31:52.315Z,43.53
2023-03-19T01:32:52.369Z,43.55
2023-03-19T01:33:52.236Z,43.66
2023-03-19T01:34:52.250Z,42.28
2023-03-19T01:35:52.245Z,42.39
2023-03-19T01:36:52.258Z,53.34
2023-03-19T01:37:52.370Z,48.32
2023-03-19T01:38:52.265Z,53.85
2023-03-19T01:39:52.220Z,47.71
2023-03-19T01:40:52.239Z,46.88
2023-03-19T01:41:52.203Z,43.35
2023-03-19T01:42:52.192Z,42.35
2023-03-19T01:43:52.202Z,48.12
2023-03-19T01:44:52.186Z,42.10
2023-03-19T01:45:53.056Z,42.14
2023-03-19T01:46:52.210Z,42.14
2023-03-19T01:47:52.146Z,48.07
2023-03-19T01:48:52.227Z,48.04
2023-03-19T01:49:52.166Z,55.65
2023-03-19T01:50:52.139Z,48.61
2023-03-19T01:51:52.189Z,43.00
2023-03-19T01:52:52.121Z,47.59
2023-03-19T01:53:52.179Z,42.48
2023-03-19T01:54:52.170Z,48.57
2023-03-19T01:55:52.074Z,42.76
2023-03-19T01:56:52.082Z,47.07
2023-03-19T01:57:52.074Z,47.72
2023-03-19T01:58:52.207Z,48.73
2023-03-19T01:59:52.063Z,47.66
2023-03-19T02:00:52.069Z,48.66
2023-03-19T02:01:52.154Z,42.42
2023-03-19T02:02:52.051Z,42.38
2023-03-19T02:03:52.065Z,42.37
2023-03-19T02:04:52.060Z,42.25
2023-03-19T02:05:52.016Z,42.11
2023-03-19T02:06:52.020Z,43.37
2023-03-19T02:07:52.011Z,43.67
2023-03-19T02:08:52.001Z,48.03
2023-03-19T02:09:52.022Z,43.75
2023-03-19T02:10:51.985Z,42.58
2023-03-19T02:11:51.989Z,42.15
2023-03-19T02:12:52.034Z,42.23
2023-03-19T02:13:51.959Z,42.20
2023-03-19T02:14:51.926Z,42.55
2023-03-19T02:15:52.000Z,42.52
2023-03-19T02:16:51.951Z,43.04
2023-03-19T02:17:51.922Z,42.65
2023-03-19T02:18:51.890Z,46.37
2023-03-19T02:19:51.925Z,51.89
2023-03-19T02:20:51.890Z,42.76
2023-03-19T02:21:52.011Z,43.10
2023-03-19T02:22:51.958Z,47.01
2023-03-19T02:23:51.857Z,47.27
2023-03-19T02:24:51.879Z,42.21
2023-03-19T02:25:51.836Z,42.30
2023-03-19T02:26:51.842Z,48.03
2023-03-19T02:27:52.022Z,49.08
2023-03-19T02:28:51.819Z,47.83
2023-03-19T02:29:51.928Z,42.66
2023-03-19T02:30:51.882Z,42.42
2023-03-19T02:31:51.837Z,42.30
2023-03-19T02:32:51.977Z,42.25
2023-03-19T02:33:51.793Z,42.28
2023-03-19T02:34:51.808Z,42.32
2023-03-19T02:35:51.887Z,42.21
2023-03-19T02:36:51.801Z,42.73
2023-03-19T02:37:51.781Z,56.18
2023-03-19T02:38:51.789Z,42.51
2023-03-19T02:39:51.729Z,45.65
2023-03-19T02:40:51.741Z,42.25
2023-03-19T02:41:51.735Z,42.19
2023-03-19T02:42:51.722Z,46.88
2023-03-19T02:43:51.725Z,44.90
2023-03-19T02:44:51.702Z,44.23
2023-03-19T02:45:51.688Z,43.70
2023-03-19T02:46:51.760Z,53.76
2023-03-19T02:47:51.715Z,44.75
2023-03-19T02:48:51.680Z,42.02
2023-03-19T02:49:51.677Z,42.07
2023-03-19T02:50:51.677Z,43.96
2023-03-19T02:51:51.663Z,50.10
2023-03-19T02:52:51.661Z,41.87
2023-03-19T02:53:51.689Z,41.94
2023-03-19T02:54:51.624Z,46.95
2023-03-19T02:55:51.610Z,48.33
2023-03-19T02:56:51.655Z,42.33
2023-03-19T02:57:51.592Z,53.07
2023-03-19T02:58:51.672Z,42.54
2023-03-19T02:59:51.590Z,42.73
2023-03-19T03:00:51.645Z,55.09
2023-03-19T03:01:51.690Z,42.14
2023-03-19T03:02:51.547Z,42.21
2023-03-19T03:03:51.558Z,42.13
2023-03-19T03:04:51.555Z,42.15
2023-03-19T03:05:51.593Z,42.57
2023-03-19T03:06:51.570Z,48.39
2023-03-19T03:07:51.518Z,42.74
2023-03-19T03:08:51.531Z,42.22
2023-03-19T03:09:51.518Z,42.41
2023-03-19T03:10:51.513Z,42.29
2023-03-19T03:11:51.499Z,42.25
2023-03-19T03:12:51.553Z,43.95
2023-03-19T03:13:51.484Z,48.49
2023-03-19T03:14:51.477Z,42.36
2023-03-19T03:15:51.513Z,42.09
2023-03-19T03:16:51.460Z,42.40
2023-03-19T03:17:51.468Z,42.14
2023-03-19T03:18:51.454Z,43.15
2023-03-19T03:19:51.441Z,43.70
2023-03-19T03:20:51.445Z,46.96
2023-03-19T03:21:51.452Z,44.76
2023-03-19T03:22:51.416Z,46.18
2023-03-19T03:23:51.388Z,45.17
2023-03-19T03:24:51.399Z,43.17
2023-03-19T03:25:51.397Z,42.34
2023-03-19T03:26:51.414Z,42.09
2023-03-19T03:27:51.367Z,42.15
2023-03-19T03:28:51.369Z,41.94
2023-03-19T03:29:51.359Z,41.93
2023-03-19T03:30:51.379Z,42.04
2023-03-19T03:31:51.407Z,42.40
2023-03-19T03:32:51.368Z,54.32
2023-03-19T03:33:51.332Z,42.68
2023-03-19T03:34:51.342Z,42.33
2023-03-19T03:35:51.306Z,42.27
2023-03-19T03:36:52.341Z,42.35
2023-03-19T03:37:51.314Z,42.18
2023-03-19T03:38:51.317Z,50.85
2023-03-19T03:39:51.272Z,42.20
2023-03-19T03:40:51.291Z,48.95
2023-03-19T03:41:51.291Z,43.07
2023-03-19T03:42:51.285Z,48.58
2023-03-19T03:43:51.256Z,42.35
2023-03-19T03:44:51.299Z,47.32
2023-03-19T03:45:51.298Z,42.65
2023-03-19T03:46:51.241Z,42.30
2023-03-19T04:03:46.746Z,43.79
2023-03-19T04:04:46.706Z,49.00
2023-03-19T04:05:46.737Z,53.12
2023-03-19T04:06:47.844Z,54.97
2023-03-19T04:07:47.874Z,47.68
2023-03-19T04:08:47.847Z,44.46
2023-03-19T04:09:47.822Z,44.70
2023-03-19T04:10:47.835Z,44.72
2023-03-19T04:11:49.785Z,44.74
2023-03-19T04:12:47.828Z,44.44
2023-03-19T04:13:47.789Z,44.84
2023-03-19T04:14:47.787Z,46.14
2023-03-19T04:15:47.780Z,45.56
2023-03-19T04:16:47.817Z,45.61
2023-03-19T04:17:47.772Z,48.71
2023-03-19T04:18:47.766Z,46.49
2023-03-19T04:19:47.795Z,56.49
2023-03-19T04:20:47.736Z,55.28
2023-03-19T04:21:47.747Z,55.04
2023-03-19T04:22:47.712Z,46.59
2023-03-19T04:23:47.716Z,52.25
2023-03-19T04:24:47.701Z,50.03
2023-03-19T04:25:47.714Z,53.17
2023-03-19T04:26:47.691Z,46.88
2023-03-19T04:27:47.786Z,49.99
2023-03-19T04:28:47.657Z,46.29
2023-03-19T04:29:47.654Z,46.69
2023-03-19T04:30:47.696Z,46.99
2023-03-19T04:31:47.632Z,48.42
2023-03-19T04:32:47.765Z,50.13
2023-03-19T04:33:47.652Z,55.61
2023-03-19T04:34:47.616Z,48.15
2023-03-19T04:35:47.660Z,52.65
2023-03-19T04:36:48.618Z,53.46
2023-03-19T04:37:47.625Z,52.97
2023-03-19T04:38:47.581Z,52.75
2023-03-19T04:39:47.577Z,51.39
2023-03-19T04:40:47.566Z,51.82
2023-03-19T04:41:47.652Z,46.95
2023-03-19T04:42:47.570Z,46.63
2023-03-19T04:43:47.551Z,46.21
2023-03-19T04:44:48.610Z,46.77
2023-03-19T04:45:47.586Z,51.69
2023-03-19T04:46:47.587Z,47.44
2023-03-19T04:47:47.530Z,47.75
2023-03-19T04:48:47.527Z,46.92
2023-03-19T04:49:47.519Z,45.47
2023-03-19T04:50:47.538Z,45.79
2023-03-19T04:51:47.539Z,45.29
2023-03-19T04:52:47.489Z,50.10
2023-03-19T04:53:47.544Z,51.20
2023-03-19T04:54:47.510Z,45.71
2023-03-19T04:55:47.456Z,47.91
2023-03-19T04:56:47.439Z,60.08
2023-03-19T04:57:47.470Z,49.63
2023-03-19T04:58:47.450Z,46.97
2023-03-19T04:59:47.476Z,49.19
2023-03-19T05:00:47.438Z,51.39
2023-03-19T05:01:47.486Z,47.68
2023-03-19T05:02:47.412Z,46.87
2023-03-19T05:03:47.467Z,44.69
2023-03-19T05:04:47.428Z,44.04
2023-03-19T05:05:47.409Z,44.16
2023-03-19T05:06:47.383Z,51.18
2023-03-19T05:07:47.379Z,44.71
2023-03-19T05:08:47.381Z,44.79
2023-03-19T05:09:47.359Z,49.33
2023-03-19T05:10:47.415Z,55.65
2023-03-19T05:11:47.365Z,51.36
2023-03-19T05:12:47.314Z,44.93
2023-03-19T05:13:47.310Z,45.79
2023-03-19T05:14:47.331Z,52.75
2023-03-19T05:15:47.364Z,44.09
2023-03-19T05:16:47.305Z,44.01
2023-03-19T05:17:47.284Z,44.22
2023-03-19T05:18:47.295Z,44.30
2023-03-19T05:19:47.269Z,44.29
2023-03-19T05:20:47.282Z,45.50
2023-03-19T05:21:47.259Z,50.28
2023-03-19T05:22:47.933Z,45.20
2023-03-19T05:23:47.283Z,44.92
2023-03-19T05:24:47.266Z,44.82
2023-03-19T05:25:47.230Z,50.99
2023-03-19T05:26:47.237Z,50.60
2023-03-19T05:27:47.262Z,46.40
2023-03-19T05:28:47.212Z,54.22
2023-03-19T05:29:47.189Z,49.41
2023-03-19T05:30:47.285Z,49.82
2023-03-19T05:31:47.171Z,49.32
2023-03-19T05:32:47.256Z,45.55
2023-03-19T05:33:47.151Z,55.18
2023-03-19T05:34:47.148Z,53.73
2023-03-19T05:35:47.199Z,56.37
2023-03-19T05:36:47.158Z,50.78
2023-03-19T05:37:47.158Z,46.29
2023-03-19T05:38:47.119Z,49.85
2023-03-19T05:39:47.096Z,54.35
2023-03-19T05:40:47.088Z,47.22
2023-03-19T05:41:47.097Z,54.78
2023-03-19T05:42:47.149Z,46.91
2023-03-19T05:43:47.082Z,50.65
2023-03-19T05:44:47.066Z,45.36
2023-03-19T05:45:47.071Z,47.42
2023-03-19T05:46:47.127Z,45.62
2023-03-19T05:47:47.092Z,50.27
2023-03-19T05:48:47.097Z,46.48
2023-03-19T05:49:47.040Z,47.35
2023-03-19T05:50:47.042Z,54.09
2023-03-19T05:51:47.044Z,53.03
2023-03-19T05:52:47.032Z,58.14
2023-03-19T05:53:47.032Z,48.25
2023-03-19T05:54:46.987Z,55.57
2023-03-19T05:55:47.012Z,49.28
2023-03-19T05:56:47.000Z,51.76
2023-03-19T05:57:46.982Z,48.85
2023-03-19T05:58:46.977Z,52.76
2023-03-19T05:59:47.962Z,45.52
2023-03-19T06:00:46.989Z,51.64
2023-03-19T06:01:46.989Z,47.28
2023-03-19T06:02:47.040Z,51.81
2023-03-19T06:03:46.973Z,48.00
2023-03-19T06:04:46.910Z,48.76
2023-03-19T06:05:47.015Z,45.61
2023-03-19T06:06:46.920Z,45.34
2023-03-19T06:07:46.927Z,51.81
2023-03-19T06:08:46.880Z,47.19
2023-03-19T06:09:46.878Z,45.55
2023-03-19T06:10:46.893Z,52.48
2023-03-19T06:11:46.856Z,50.21
2023-03-19T06:12:46.894Z,52.09
2023-03-19T06:13:46.847Z,48.71
2023-03-19T06:14:46.836Z,48.36
2023-03-19T06:15:46.852Z,52.81
2023-03-19T06:16:46.825Z,50.22
2023-03-19T06:17:46.906Z,46.88
2023-03-19T06:18:46.860Z,46.95
2023-03-19T06:19:46.809Z,47.80
2023-03-19T06:20:46.833Z,52.08
2023-03-19T06:21:46.819Z,53.31
2023-03-19T06:22:46.906Z,46.69
2023-03-19T06:23:46.865Z,52.06
2023-03-19T06:24:46.776Z,47.50
2023-03-19T06:25:46.802Z,56.00
2023-03-19T06:26:46.757Z,50.44
2023-03-19T06:27:46.763Z,49.05
2023-03-19T06:28:46.733Z,45.75
2023-03-19T06:29:46.733Z,48.10
2023-03-19T06:30:46.754Z,55.96
2023-03-19T06:31:46.798Z,49.41
2023-03-19T06:32:46.764Z,51.49
2023-03-19T06:33:46.713Z,44.51
2023-03-19T06:34:46.745Z,48.98
2023-03-19T06:35:46.707Z,47.02
2023-03-19T06:36:46.693Z,53.51
2023-03-19T06:37:46.666Z,43.77
2023-03-19T06:38:46.666Z,59.50
2023-03-19T06:39:46.719Z,44.18
2023-03-19T06:40:46.755Z,55.50
2023-03-19T06:41:46.664Z,45.18
2023-03-19T06:42:46.655Z,44.46
2023-03-19T06:43:46.636Z,54.49
2023-03-19T06:44:46.702Z,44.98
2023-03-19T06:45:46.680Z,54.93
2023-03-19T06:46:46.603Z,46.05
2023-03-19T06:47:46.605Z,51.86
2023-03-19T06:48:46.621Z,51.77
2023-03-19T06:49:46.573Z,58.91
2023-03-19T06:50:46.597Z,53.01
2023-03-19T06:51:46.585Z,55.65
2023-03-19T06:52:46.621Z,56.66
2023-03-19T06:53:46.607Z,52.45
2023-03-19T06:54:46.573Z,54.31
2023-03-19T06:55:46.579Z,52.17
2023-03-19T06:56:46.549Z,51.50
2023-03-19T06:57:46.507Z,52.99
2023-03-19T06:58:46.578Z,56.71
2023-03-19T06:59:46.521Z,61.03
2023-03-19T07:00:46.640Z,49.81
2023-03-19T07:01:46.498Z,51.55
2023-03-19T07:02:46.478Z,58.48
2023-03-19T07:03:46.514Z,53.24
2023-03-19T07:04:46.443Z,53.33
2023-03-19T07:05:46.453Z,44.92
2023-03-19T07:06:46.488Z,54.86
2023-03-19T07:07:46.474Z,56.45
2023-03-19T07:08:46.515Z,57.98
2023-03-19T07:09:46.420Z,51.12
2023-03-19T07:10:46.442Z,54.74
2023-03-19T07:11:46.406Z,54.77
2023-03-19T07:12:46.463Z,50.32
2023-03-19T07:13:46.411Z,44.45
2023-03-19T07:14:46.409Z,53.79
2023-03-19T07:16:18.971Z,45.23
2023-03-19T07:16:46.487Z,46.28
2023-03-19T07:17:46.468Z,54.89
2023-03-19T07:18:46.377Z,51.12
2023-03-19T07:19:46.367Z,46.48
2023-03-19T07:20:46.359Z,52.70
2023-03-19T07:21:46.335Z,57.42
2023-03-19T07:22:46.369Z,52.90
2023-03-19T07:23:46.345Z,54.52
2023-03-19T07:24:46.314Z,55.93
2023-03-19T07:25:46.303Z,55.44
2023-03-19T07:26:46.300Z,53.52
2023-03-19T07:27:46.296Z,55.20
2023-03-19T07:28:46.293Z,51.25
2023-03-19T07:29:46.260Z,56.13
2023-03-19T07:30:46.277Z,58.63
2023-03-19T07:31:46.370Z,57.62
2023-03-19T07:32:46.313Z,51.57
2023-03-19T07:33:46.247Z,51.76
2023-03-19T07:34:46.254Z,59.50
2023-03-19T07:35:46.231Z,51.45
2023-03-19T07:36:46.251Z,57.36
2023-03-19T07:37:46.210Z,57.05
2023-03-19T07:38:46.223Z,62.36
2023-03-19T07:39:46.212Z,50.54
2023-03-19T07:41:01.046Z,50.29
2023-03-19T07:41:48.209Z,54.50
2023-03-19T07:42:46.174Z,54.76
2023-03-19T07:43:46.209Z,55.33
2023-03-19T07:44:46.204Z,62.79
2023-03-19T07:45:46.188Z,48.10
2023-03-19T07:46:46.140Z,48.05
2023-03-19T07:47:47.386Z,59.35
2023-03-19T07:48:46.118Z,45.71
2023-03-19T07:49:46.115Z,52.18
2023-03-19T07:50:46.134Z,55.06
2023-03-19T07:51:46.134Z,57.36
2023-03-19T07:52:46.105Z,63.67
2023-03-19T07:53:46.129Z,54.78
2023-03-19T07:54:46.109Z,59.39
2023-03-19T07:55:46.107Z,53.30
2023-03-19T07:56:46.170Z,46.91
2023-03-19T07:57:46.055Z,54.33
2023-03-19T07:58:46.101Z,51.00
2023-03-19T07:59:46.075Z,57.50
2023-03-19T08:00:46.038Z,58.74
2023-03-19T08:01:46.048Z,55.34
2023-03-19T08:02:46.068Z,58.15
2023-03-19T08:03:46.022Z,55.83
2023-03-19T08:04:46.013Z,53.27
2023-03-19T08:05:46.000Z,58.12
2023-03-19T08:06:46.053Z,50.46
2023-03-19T08:07:45.999Z,53.13
2023-03-19T08:08:45.981Z,54.30
2023-03-19T08:09:45.958Z,58.85
2023-03-19T08:10:45.989Z,53.74
2023-03-19T08:11:45.980Z,56.32
2023-03-19T08:12:46.914Z,53.38
2023-03-19T08:13:46.004Z,57.65
2023-03-19T08:14:45.936Z,48.36
2023-03-19T08:15:45.927Z,57.48
2023-03-19T08:16:45.949Z,58.84
2023-03-19T08:17:45.971Z,56.11
2023-03-19T08:18:45.902Z,51.67
2023-03-19T08:19:45.881Z,48.46
2023-03-19T08:20:45.892Z,58.63
2023-03-19T08:21:45.869Z,57.56
2023-03-19T08:22:45.892Z,51.27
2023-03-19T08:23:45.881Z,60.17
2023-03-19T08:24:45.823Z,58.72
2023-03-19T08:25:45.824Z,57.08
2023-03-19T08:26:45.814Z,58.83
2023-03-19T08:27:45.808Z,60.55
2023-03-19T08:28:45.841Z,59.59
2023-03-19T08:29:46.494Z,50.83
2023-03-19T08:30:45.801Z,65.44
2023-03-19T08:31:45.775Z,59.40
2023-03-19T08:32:45.855Z,51.75
2023-03-19T08:33:45.822Z,48.92
2023-03-19T08:34:47.629Z,56.92
2023-03-19T08:35:45.813Z,59.59
2023-03-19T08:36:45.760Z,56.81
2023-03-19T08:37:45.730Z,59.48
2023-03-19T08:38:45.739Z,60.58
2023-03-19T08:39:45.746Z,56.41
2023-03-19T08:40:45.727Z,64.33
2023-03-19T08:41:45.726Z,63.54
2023-03-19T08:42:45.678Z,57.35
2023-03-19T08:43:45.689Z,61.87
2023-03-19T08:44:45.714Z,56.84
2023-03-19T08:45:45.686Z,51.83
2023-03-19T08:46:45.704Z,57.34
2023-03-19T08:47:45.648Z,63.11
2023-03-19T08:48:45.691Z,48.86
2023-03-19T08:49:45.642Z,59.13
2023-03-19T08:50:45.629Z,61.82
2023-03-19T08:51:45.615Z,64.52
2023-03-19T08:52:45.602Z,63.67
2023-03-19T08:53:45.613Z,61.34
2023-03-19T08:54:45.632Z,58.43
2023-03-19T08:55:45.677Z,64.79
2023-03-19T08:56:46.538Z,57.80
2023-03-19T08:57:45.638Z,62.46
2023-03-19T08:58:45.583Z,61.69
2023-03-19T08:59:45.620Z,62.97
2023-03-19T09:00:45.580Z,59.34
2023-03-19T09:01:45.588Z,63.32
2023-03-19T09:02:45.572Z,52.88
2023-03-19T09:03:45.546Z,61.51
2023-03-19T09:04:45.590Z,63.20
2023-03-19T09:05:45.548Z,62.71
2023-03-19T09:06:45.510Z,59.57
2023-03-19T09:07:45.505Z,54.25
2023-03-19T09:08:45.513Z,53.90
2023-03-19T09:09:45.485Z,63.14
2023-03-19T09:10:45.496Z,53.96
2023-03-19T09:11:46.526Z,62.80
2023-03-19T09:12:47.431Z,62.79
2023-03-19T09:13:45.475Z,60.08
2023-03-19T09:14:46.022Z,62.68
2023-03-19T09:15:45.433Z,57.19
2023-03-19T09:16:45.460Z,63.66
2023-03-19T09:17:45.455Z,60.59
2023-03-19T09:18:45.419Z,56.65
2023-03-19T09:19:45.412Z,56.62
2023-03-19T09:20:45.409Z,55.68
2023-03-19T09:21:45.390Z,56.08
2023-03-19T09:22:45.394Z,60.52
2023-03-19T09:23:45.409Z,55.42
2023-03-19T09:24:45.460Z,60.68
2023-03-19T09:25:45.351Z,62.05
2023-03-19T09:26:46.366Z,59.92
2023-03-19T09:27:45.381Z,58.39
2023-03-19T09:28:45.318Z,61.71
2023-03-19T09:29:45.306Z,63.23
2023-03-19T09:30:45.328Z,55.03
2023-03-19T09:31:45.341Z,57.56
2023-03-19T09:32:45.319Z,62.82
2023-03-19T09:33:45.356Z,63.33
2023-03-19T09:34:45.280Z,61.59
2023-03-19T09:35:45.322Z,54.42
2023-03-19T09:36:45.321Z,60.25
2023-03-19T09:37:45.266Z,60.83
2023-03-19T09:38:45.322Z,56.68
2023-03-19T09:39:45.278Z,59.80
2023-03-19T09:40:45.257Z,60.80
2023-03-19T09:41:45.231Z,58.58
2023-03-19T09:42:45.240Z,55.96
2023-03-19T09:43:45.268Z,48.36
2023-03-19T09:44:45.318Z,54.51
2023-03-19T09:45:45.239Z,60.11
2023-03-19T09:46:45.289Z,63.66
2023-03-19T09:47:45.196Z,61.91
2023-03-19T09:48:45.289Z,63.86
2023-03-19T09:49:45.210Z,57.81
2023-03-19T09:50:45.190Z,54.53
2023-03-19T09:51:45.183Z,59.04
2023-03-19T09:52:45.274Z,55.36
2023-03-19T09:53:45.157Z,55.22
2023-03-19T09:54:45.176Z,64.23
2023-03-19T09:55:45.187Z,56.98
2023-03-19T09:56:45.167Z,56.83
2023-03-19T09:57:45.171Z,59.28
2023-03-19T09:58:46.098Z,60.21
2023-03-19T09:59:45.160Z,57.96
2023-03-19T10:00:45.138Z,53.73
2023-03-19T10:01:45.137Z,61.12
2023-03-19T10:02:45.105Z,59.60
2023-03-19T10:03:45.089Z,59.61
2023-03-19T10:04:45.105Z,64.23
2023-03-19T10:05:45.067Z,48.84
2023-03-19T10:06:45.069Z,58.10
2023-03-19T10:07:45.024Z,56.12
2023-03-19T10:08:46.047Z,61.41
2023-03-19T10:09:45.027Z,56.71
2023-03-19T10:10:45.071Z,55.80
2023-03-19T10:11:45.018Z,59.20
2023-03-19T10:12:45.039Z,63.72
2023-03-19T10:13:45.014Z,56.47
2023-03-19T10:14:44.978Z,61.95
2023-03-19T10:15:44.975Z,58.77
2023-03-19T10:16:45.014Z,59.75
2023-03-19T10:17:45.021Z,54.32
2023-03-19T10:18:45.318Z,59.82
2023-03-19T10:19:45.187Z,60.53
2023-03-19T10:20:44.966Z,55.57
2023-03-19T10:21:45.012Z,61.01
2023-03-19T10:22:44.981Z,58.24
2023-03-19T10:23:44.956Z,57.70
2023-03-19T10:24:44.908Z,59.37
2023-03-19T10:25:44.915Z,63.65
2023-03-19T10:26:44.975Z,63.32
2023-03-19T10:27:44.923Z,55.00
2023-03-19T10:28:45.067Z,62.18
2023-03-19T10:29:44.972Z,62.17
2023-03-19T10:30:44.869Z,56.04
2023-03-19T10:31:44.978Z,62.61
2023-03-19T10:32:44.946Z,60.30
2023-03-19T10:33:44.842Z,56.90
2023-03-19T10:34:44.843Z,60.12
2023-03-19T10:35:44.976Z,57.37
2023-03-19T10:36:44.833Z,54.82
2023-03-19T10:37:44.820Z,52.86
2023-03-19T10:38:44.854Z,58.65
2023-03-19T10:39:44.816Z,59.97
2023-03-19T10:40:44.831Z,59.80
2023-03-19T10:41:44.898Z,58.35
2023-03-19T10:42:44.775Z,61.67
2023-03-19T10:43:44.766Z,56.53
2023-03-19T10:44:44.790Z,64.48
2023-03-19T10:45:44.890Z,56.44
2023-03-19T10:46:44.755Z,66.35
2023-03-19T10:47:44.791Z,64.50
2023-03-19T10:48:44.803Z,60.23
2023-03-19T10:49:44.724Z,62.58
2023-03-19T10:50:44.731Z,59.23
2023-03-19T10:51:44.726Z,59.72
2023-03-19T10:52:44.755Z,62.33
2023-03-19T10:53:44.729Z,56.77
2023-03-19T10:54:44.705Z,60.57
2023-03-19T10:55:44.641Z,64.08
2023-03-19T10:56:44.677Z,65.57
2023-03-19T10:57:44.655Z,62.90
2023-03-19T10:58:44.715Z,63.76
2023-03-19T10:59:44.692Z,63.73
2023-03-19T11:00:44.744Z,64.55
2023-03-19T11:01:44.617Z,62.55
2023-03-19T11:02:44.677Z,59.32
2023-03-19T11:03:44.649Z,60.95
2023-03-19T11:04:44.602Z,61.81
2023-03-19T11:05:44.673Z,64.76
2023-03-19T11:06:44.622Z,56.64
2023-03-19T11:07:44.621Z,57.43
2023-03-19T11:08:44.584Z,65.48
2023-03-19T11:09:44.640Z,58.09
2023-03-19T11:10:44.579Z,62.64
2023-03-19T11:11:44.562Z,61.17
2023-03-19T11:12:44.521Z,58.45
2023-03-19T11:13:44.657Z,58.95
2023-03-19T11:14:44.514Z,62.86
2023-03-19T11:15:44.568Z,63.12
2023-03-19T11:16:44.569Z,60.60
2023-03-19T11:17:44.540Z,55.41
2023-03-19T11:18:45.449Z,61.54
2023-03-19T11:19:44.508Z,60.82
2023-03-19T11:20:44.478Z,59.09
2023-03-19T11:21:44.474Z,60.33
2023-03-19T11:22:44.458Z,62.48
2023-03-19T11:23:44.496Z,60.35
2023-03-19T11:24:44.446Z,56.58
2023-03-19T11:25:44.511Z,60.45
2023-03-19T11:26:44.476Z,63.35
2023-03-19T11:27:44.493Z,62.06
2023-03-19T11:28:44.414Z,61.15
2023-03-19T11:29:44.481Z,65.19
2023-03-19T11:30:44.418Z,59.25
2023-03-19T11:31:44.487Z,59.70
2023-03-19T11:32:44.505Z,61.94
2023-03-19T11:33:44.417Z,63.59
2023-03-19T11:34:44.355Z,58.91
2023-03-19T11:35:44.473Z,62.02
2023-03-19T11:36:44.364Z,62.76
2023-03-19T11:37:44.377Z,63.43
2023-03-19T11:38:44.356Z,56.53
2023-03-19T11:39:44.338Z,61.20
2023-03-19T11:40:44.347Z,61.05
2023-03-19T11:41:44.352Z,58.90
2023-03-19T11:42:44.354Z,62.69
2023-03-19T11:43:44.335Z,64.97
2023-03-19T11:44:44.312Z,61.69
2023-03-19T11:45:44.350Z,59.69
2023-03-19T11:46:44.299Z,62.89
2023-03-19T11:47:44.349Z,58.47
2023-03-19T11:48:44.394Z,60.90
2023-03-19T11:49:44.270Z,64.82
2023-03-19T11:50:45.087Z,66.27
2023-03-19T11:51:44.252Z,64.27
2023-03-19T11:52:44.264Z,58.53
2023-03-19T11:53:44.278Z,61.21
2023-03-19T11:54:44.275Z,56.17
2023-03-19T11:55:44.272Z,58.35
2023-03-19T11:56:44.210Z,57.93
2023-03-19T11:57:44.204Z,56.26
2023-03-19T11:58:44.224Z,63.14
2023-03-19T11:59:44.200Z,57.60
2023-03-19T12:00:44.187Z,62.78
2023-03-19T12:01:44.160Z,53.87
2023-03-19T12:02:44.274Z,64.81
2023-03-19T12:03:44.277Z,63.81
2023-03-19T12:04:44.170Z,60.70
2023-03-19T12:05:44.183Z,58.42
2023-03-19T12:06:45.146Z,59.12
2023-03-19T12:07:44.120Z,63.83
2023-03-19T12:08:44.130Z,58.81
2023-03-19T12:09:44.165Z,64.98
2023-03-19T12:10:44.169Z,61.76
2023-03-19T12:11:44.101Z,56.46
2023-03-19T12:12:44.192Z,61.72
2023-03-19T12:13:44.104Z,62.36
2023-03-19T12:14:44.098Z,61.66
2023-03-19T12:15:44.107Z,61.96
2023-03-19T12:16:46.532Z,61.51
2023-03-19T12:17:45.078Z,66.58
2023-03-19T12:18:44.043Z,64.60
2023-03-19T12:19:44.036Z,56.55
2023-03-19T12:20:44.035Z,64.99
2023-03-19T12:21:44.056Z,65.38
2023-03-19T12:22:44.214Z,64.16
2023-03-19T12:23:44.010Z,60.52
2023-03-19T12:24:43.980Z,65.47
2023-03-19T12:25:43.977Z,60.97
2023-03-19T12:26:44.009Z,62.61
2023-03-19T12:27:44.005Z,65.30
2023-03-19T12:28:43.973Z,55.91
2023-03-19T12:29:43.953Z,64.80
2023-03-19T12:30:44.060Z,60.83
2023-03-19T12:31:43.970Z,58.28
2023-03-19T12:32:43.965Z,58.56
2023-03-19T12:33:43.997Z,56.58
2023-03-19T12:34:43.958Z,63.96
2023-03-19T12:35:44.044Z,60.93
2023-03-19T12:36:43.926Z,61.36
2023-03-19T12:37:43.935Z,64.25
2023-03-19T12:38:43.900Z,54.26
2023-03-19T12:39:43.878Z,63.78
2023-03-19T12:40:43.878Z,64.26
2023-03-19T12:41:43.851Z,63.12
2023-03-19T12:42:43.870Z,64.35
2023-03-19T12:43:43.892Z,59.96
2023-03-19T12:44:43.882Z,65.54
2023-03-19T12:45:43.866Z,65.10
2023-03-19T12:46:43.934Z,66.07
2023-03-19T12:47:43.841Z,53.38
2023-03-19T12:48:43.901Z,53.80
2023-03-19T12:49:44.399Z,58.66
2023-03-19T12:50:43.798Z,65.08
2023-03-19T12:51:43.818Z,59.82
2023-03-19T12:52:43.884Z,57.95
2023-03-19T12:53:43.811Z,61.80
2023-03-19T12:54:43.797Z,57.07
2023-03-19T12:55:43.779Z,64.64
2023-03-19T12:56:43.749Z,64.63
2023-03-19T12:57:44.670Z,62.65
2023-03-19T12:58:43.768Z,57.55
2023-03-19T12:59:43.766Z,65.07
2023-03-19T13:00:43.736Z,66.06
2023-03-19T13:01:43.757Z,61.83
2023-03-19T13:02:43.746Z,60.67
2023-03-19T13:03:43.737Z,61.49
2023-03-19T13:04:43.707Z,56.92
2023-03-19T13:05:43.702Z,64.94
2023-03-19T13:06:43.767Z,63.33
2023-03-19T13:07:43.680Z,66.28
2023-03-19T13:08:43.665Z,67.78